createdAt,value
2023-05-16T00:01:30.919Z,9.65
2023-05-16T00:03:59.149Z,9.07
2023-05-16T00:06:27.140Z,9.45
2023-05-16T00:08:56.402Z,9.40
2023-05-16T00:11:24.443Z,9.60
2023-05-16T00:13:55.115Z,9.75
2023-05-16T00:16:25.940Z,8.77
2023-05-16T00:18:54.000Z,9.90
2023-05-16T00:21:23.721Z,9.57
2023-05-16T00:23:52.871Z,9.10
2023-05-16T00:26:22.391Z,9.43
2023-05-16T00:28:50.355Z,9.30
2023-05-16T00:31:18.374Z,8.65
2023-05-16T00:33:46.452Z,9.23
2023-05-16T00:36:14.399Z,9.68
2023-05-16T00:38:42.336Z,8.57
2023-05-16T00:41:10.247Z,8.68
2023-05-16T00:43:39.785Z,9.20
2023-05-16T00:46:07.731Z,8.88
2023-05-16T00:48:35.823Z,8.75
2023-05-16T00:51:03.939Z,9.68
2023-05-16T00:53:31.882Z,9.82
2023-05-16T00:56:00.423Z,9.65
2023-05-16T00:58:29.168Z,9.68
2023-05-16T01:00:58.629Z,9.00
2023-05-16T01:03:27.321Z,9.00
2023-05-16T01:05:55.376Z,9.55
2023-05-16T01:08:23.330Z,10.07
2023-05-16T01:11:00.745Z,9.30
2023-05-16T01:13:35.138Z,9.93
2023-05-16T01:16:11.295Z,9.40
2023-05-16T01:18:50.157Z,10.15
2023-05-16T01:21:28.357Z,9.70
2023-05-16T01:24:11.196Z,10.93
2023-05-16T01:26:42.602Z,9.23
2023-05-16T01:29:12.872Z,9.70
2023-05-16T01:31:40.792Z,10.35
2023-05-16T01:34:09.062Z,10.30
2023-05-16T01:36:45.510Z,8.50
2023-05-16T01:39:21.190Z,9.48
2023-05-16T01:41:57.276Z,9.95
2023-05-16T01:44:30.418Z,9.85
2023-05-16T01:47:01.223Z,9.43
2023-05-16T01:49:36.212Z,9.32
2023-05-16T01:52:11.133Z,9.40
2023-05-16T01:54:42.612Z,8.63
2023-05-16T01:57:13.407Z,8.23
2023-05-16T01:59:42.856Z,8.00
2023-05-16T02:02:11.008Z,8.10
2023-05-16T02:04:38.966Z,8.07
2023-05-16T02:07:07.412Z,7.95
2023-05-16T02:09:35.485Z,8.38
2023-05-16T02:12:04.586Z,7.35
2023-05-16T02:14:34.008Z,7.38
2023-05-16T02:17:02.001Z,7.45
2023-05-16T02:19:30.129Z,7.03
2023-05-16T02:21:57.952Z,7.30
2023-05-16T02:24:26.000Z,6.65
2023-05-16T02:26:53.846Z,7.20
2023-05-16T02:29:21.777Z,7.32
2023-05-16T02:31:51.050Z,7.05
2023-05-16T02:34:18.988Z,6.70
2023-05-16T02:36:46.976Z,6.57
2023-05-16T02:39:14.822Z,6.53
2023-05-16T02:41:42.733Z,6.70
2023-05-16T02:44:11.058Z,7.07
2023-05-16T02:46:39.007Z,6.82
2023-05-16T02:49:08.394Z,7.00
2023-05-16T02:51:36.234Z,6.07
2023-05-16T02:54:05.674Z,7.05
2023-05-16T02:56:33.564Z,11.45
2023-05-16T02:59:01.720Z,9.80
2023-05-16T03:01:29.681Z,6.82
2023-05-16T03:03:57.874Z,6.10
2023-05-16T03:06:27.344Z,6.65
2023-05-16T03:08:55.229Z,6.57
2023-05-16T03:11:24.148Z,6.20
2023-05-16T03:13:52.139Z,6.45
2023-05-16T03:16:20.816Z,6.35
2023-05-16T03:18:48.813Z,6.15
2023-05-16T03:21:16.878Z,6.25
2023-05-16T03:23:46.173Z,6.70
2023-05-16T03:26:14.085Z,5.90
2023-05-16T03:28:41.974Z,6.90
2023-05-16T03:31:10.010Z,6.55
2023-05-16T03:33:37.878Z,6.57
2023-05-16T03:36:06.450Z,18.40
2023-05-16T03:38:34.363Z,7.30
2023-05-16T03:41:03.627Z,6.15
2023-05-16T03:43:31.592Z,6.35
2023-05-16T03:45:59.565Z,6.95
2023-05-16T03:48:27.432Z,7.18
2023-05-16T03:50:55.612Z,6.57
2023-05-16T03:53:23.478Z,6.68
2023-05-16T03:55:51.559Z,6.45
2023-05-16T03:58:20.900Z,7.03
2023-05-16T04:00:48.873Z,6.60
2023-05-16T04:03:16.829Z,15.32
2023-05-16T04:05:45.151Z,6.78
2023-05-16T04:08:13.160Z,6.90
2023-05-16T04:10:41.155Z,7.60
2023-05-16T04:13:11.697Z,7.93
2023-05-16T04:15:41.060Z,7.68
2023-05-16T04:18:09.855Z,7.35
2023-05-16T04:20:37.849Z,7.03
2023-05-16T04:23:05.889Z,6.93
2023-05-16T04:25:33.860Z,6.82
2023-05-16T04:28:02.264Z,7.28
2023-05-16T04:30:30.299Z,7.35
2023-05-16T04:32:59.930Z,8.15
2023-05-16T04:35:29.352Z,8.20
2023-05-16T04:37:57.483Z,8.40
2023-05-16T04:40:27.879Z,8.25
2023-05-16T04:42:55.805Z,7.45
2023-05-16T04:45:23.893Z,7.70
2023-05-16T04:47:52.394Z,7.90
2023-05-16T04:50:21.862Z,8.23
2023-05-16T04:52:49.812Z,7.30
2023-05-16T04:55:18.020Z,8.45
2023-05-16T04:57:46.250Z,7.90
2023-05-16T05:00:16.403Z,8.68
2023-05-16T05:02:44.643Z,8.10
2023-05-16T05:05:12.830Z,8.13
2023-05-16T05:07:42.915Z,8.05
2023-05-16T05:10:11.954Z,8.40
2023-05-16T05:12:39.762Z,8.38
2023-05-16T05:15:08.769Z,8.45
2023-05-16T05:17:37.882Z,8.35
2023-05-16T05:20:08.738Z,8.75
2023-05-16T05:22:36.699Z,8.73
2023-05-16T05:25:07.317Z,8.85
2023-05-16T05:27:35.289Z,8.18
2023-05-16T05:30:03.510Z,8.45
2023-05-16T05:32:31.513Z,8.07
2023-05-16T05:34:59.645Z,8.55
2023-05-16T05:37:27.880Z,8.27
2023-05-16T05:39:55.907Z,8.35
2023-05-16T05:42:25.238Z,8.13
2023-05-16T05:44:53.125Z,9.50
2023-05-16T05:47:21.754Z,8.25
2023-05-16T05:49:49.852Z,8.45
2023-05-16T05:52:17.776Z,8.85
2023-05-16T05:54:45.923Z,8.02
2023-05-16T05:57:13.824Z,9.10
2023-05-16T05:59:43.212Z,8.43
2023-05-16T06:02:11.355Z,8.23
2023-05-16T06:04:39.376Z,8.55
2023-05-16T06:07:07.250Z,8.52
2023-05-16T06:09:35.286Z,8.15
2023-05-16T06:12:04.329Z,8.25
2023-05-16T06:14:32.265Z,7.40
2023-05-16T06:17:01.668Z,8.02
2023-05-16T06:19:29.630Z,7.50
2023-05-16T06:21:57.552Z,7.28
2023-05-16T06:24:25.483Z,7.25
2023-05-16T06:26:53.446Z,7.00
2023-05-16T06:29:21.346Z,8.18
2023-05-16T06:31:50.277Z,7.75
2023-05-16T06:34:23.991Z,6.75
2023-05-16T06:36:51.874Z,7.38
2023-05-16T06:39:19.844Z,7.18
2023-05-16T06:41:47.846Z,7.20
2023-05-16T06:44:15.780Z,6.97
2023-05-16T06:46:43.875Z,6.75
2023-05-16T06:49:11.922Z,6.25
2023-05-16T06:51:41.613Z,6.10
2023-05-16T06:54:09.674Z,6.35
2023-05-16T06:56:38.128Z,6.38
2023-05-16T06:59:06.174Z,5.63
2023-05-16T07:01:34.196Z,5.75
2023-05-16T07:04:02.290Z,6.63
2023-05-16T07:06:30.304Z,5.88
2023-05-16T07:08:59.593Z,6.15
2023-05-16T07:11:27.539Z,5.85
2023-05-16T07:13:55.620Z,5.95
2023-05-16T07:16:24.412Z,5.63
2023-05-16T07:18:52.538Z,5.45
2023-05-16T07:21:20.835Z,5.80
2023-05-16T07:23:56.528Z,5.97
2023-05-16T07:26:26.752Z,5.65
2023-05-16T07:28:55.908Z,5.60
2023-05-16T07:31:24.246Z,5.88
2023-05-16T07:33:52.297Z,6.10
2023-05-16T07:36:20.289Z,5.72
2023-05-16T07:38:48.286Z,6.05
2023-05-16T07:41:16.373Z,5.78
2023-05-16T07:43:48.211Z,6.15
2023-05-16T07:46:16.240Z,5.53
2023-05-16T07:48:44.275Z,6.18
2023-05-16T07:51:14.476Z,6.25
2023-05-16T07:53:42.837Z,5.57
2023-05-16T07:56:11.160Z,5.85
2023-05-16T07:58:39.544Z,6.03
2023-05-16T08:01:09.147Z,5.72
2023-05-16T08:03:38.036Z,5.55
2023-05-16T08:06:06.618Z,5.63
2023-05-16T08:08:34.631Z,5.65
2023-05-16T08:11:02.656Z,5.60
2023-05-16T08:13:31.793Z,5.47
2023-05-16T08:15:59.999Z,5.70
2023-05-16T08:18:29.432Z,5.78
2023-05-16T08:20:57.575Z,5.35
2023-05-16T08:23:25.565Z,5.45
2023-05-16T08:25:54.815Z,5.28
2023-05-16T08:28:22.878Z,5.43
2023-05-16T08:30:51.249Z,6.00
2023-05-16T08:33:19.361Z,5.00
2023-05-16T08:35:49.555Z,5.32
2023-05-16T08:38:17.473Z,5.57
2023-05-16T08:40:45.521Z,6.03
2023-05-16T08:43:13.657Z,5.50
2023-05-16T08:45:42.304Z,5.38
2023-05-16T08:48:12.395Z,5.53
2023-05-16T08:50:42.877Z,5.20
2023-05-16T08:53:13.536Z,4.90
2023-05-16T08:55:43.616Z,5.60
2023-05-16T08:58:12.194Z,4.88
2023-05-16T09:00:41.520Z,5.07
2023-05-16T09:03:09.866Z,4.70
2023-05-16T09:05:38.309Z,5.55
2023-05-16T09:08:06.856Z,4.95
2023-05-16T09:10:36.209Z,5.75
2023-05-16T09:13:04.461Z,5.20
2023-05-16T09:15:34.222Z,5.15
2023-05-16T09:18:03.437Z,4.75
2023-05-16T09:20:31.742Z,6.32
2023-05-16T09:23:01.111Z,4.95
2023-05-16T09:25:31.840Z,5.07
2023-05-16T09:28:03.563Z,4.65
2023-05-16T09:30:34.129Z,4.80
2023-05-16T09:33:02.970Z,5.00
2023-05-16T09:35:43.943Z,5.00
2023-05-16T09:38:17.230Z,5.53
2023-05-16T09:40:46.687Z,4.85
2023-05-16T09:43:18.732Z,5.28
2023-05-16T09:45:49.158Z,4.60
2023-05-16T09:48:18.389Z,4.72
2023-05-16T09:50:52.362Z,4.95
2023-05-16T09:53:27.905Z,4.82
2023-05-16T09:56:03.695Z,4.70
2023-05-16T09:58:34.872Z,5.07
2023-05-16T10:01:03.581Z,5.25
2023-05-16T10:03:32.134Z,4.60
2023-05-16T10:06:01.826Z,4.68
2023-05-16T10:08:36.306Z,4.78
2023-05-16T10:11:06.493Z,4.40
2023-05-16T10:13:40.394Z,4.68
2023-05-16T10:16:11.424Z,5.18
2023-05-16T10:18:41.217Z,5.10
2023-05-16T10:21:15.158Z,4.80
2023-05-16T10:23:44.764Z,5.13
2023-05-16T10:26:14.744Z,5.10
2023-05-16T10:28:44.769Z,5.10
2023-05-16T10:31:12.836Z,5.57
2023-05-16T10:33:41.658Z,6.20
2023-05-16T10:36:13.343Z,5.13
2023-05-16T10:38:42.253Z,4.80
2023-05-16T10:41:10.744Z,5.22
2023-05-16T10:43:38.881Z,5.10
2023-05-16T10:46:10.409Z,5.05
2023-05-16T10:48:39.948Z,4.90
2023-05-16T10:51:37.388Z,5.05
2023-05-16T10:54:10.949Z,4.80
2023-05-16T10:56:39.209Z,5.22
2023-05-16T10:59:24.157Z,5.07
2023-05-16T11:01:56.279Z,4.88
2023-05-16T11:04:24.481Z,4.97
2023-05-16T11:06:54.736Z,5.15
2023-05-16T11:09:25.659Z,4.95
2023-05-16T11:12:11.217Z,5.68
2023-05-16T11:14:42.565Z,5.18
2023-05-16T11:17:16.518Z,5.25
2023-05-16T11:19:46.565Z,5.00
2023-05-16T11:22:26.788Z,6.43
2023-05-16T11:24:58.244Z,6.40
2023-05-16T11:27:28.633Z,5.63
2023-05-16T11:30:02.737Z,5.80
2023-05-16T11:32:35.999Z,4.90
2023-05-16T11:35:05.171Z,5.53
2023-05-16T11:37:33.376Z,5.30
2023-05-16T11:40:02.390Z,5.05
2023-05-16T11:42:34.013Z,5.90
2023-05-16T11:45:07.232Z,8.15
2023-05-16T11:47:38.499Z,6.75
2023-05-16T11:50:07.893Z,6.38
2023-05-16T11:52:35.972Z,4.97
2023-05-16T11:55:06.469Z,5.10
2023-05-16T11:57:34.679Z,5.40
2023-05-16T12:00:06.634Z,5.30
2023-05-16T12:02:36.285Z,5.60
2023-05-16T12:05:10.240Z,5.28
2023-05-16T12:07:38.579Z,5.85
2023-05-16T12:10:08.001Z,5.18
2023-05-16T12:12:36.598Z,6.22
2023-05-16T12:15:06.585Z,6.00
2023-05-16T12:17:37.138Z,5.63
2023-05-16T12:20:07.900Z,5.55
2023-05-16T12:22:35.935Z,5.25
2023-05-16T12:25:27.432Z,5.65
2023-05-16T12:27:56.027Z,5.07
2023-05-16T12:30:25.677Z,5.05
2023-05-16T12:32:57.846Z,4.93
2023-05-16T12:35:26.528Z,4.95
2023-05-16T12:37:56.017Z,4.57
2023-05-16T12:40:24.416Z,4.45
2023-05-16T12:42:52.811Z,4.90
2023-05-16T12:45:21.233Z,5.07
2023-05-16T12:47:49.259Z,4.78
2023-05-16T12:50:18.715Z,4.97
2023-05-16T12:52:51.671Z,5.38
2023-05-16T12:55:20.673Z,4.82
2023-05-16T12:57:49.879Z,4.60
2023-05-16T13:00:20.043Z,4.90
2023-05-16T13:02:49.216Z,4.70
2023-05-16T13:05:18.930Z,4.78
2023-05-16T13:07:47.093Z,5.30
2023-05-16T13:10:15.211Z,5.57
2023-05-16T13:12:43.403Z,5.00
2023-05-16T13:15:13.143Z,5.78
2023-05-16T13:17:42.361Z,5.38
2023-05-16T13:20:13.711Z,5.05
2023-05-16T13:22:44.723Z,5.65
2023-05-16T13:25:13.502Z,5.25
2023-05-16T13:27:42.305Z,5.22
2023-05-16T13:30:11.852Z,5.97
2023-05-16T13:32:40.049Z,4.82
2023-05-16T13:35:09.656Z,5.63
2023-05-16T13:37:39.508Z,5.63
2023-05-16T13:40:10.704Z,5.55
2023-05-16T13:42:39.854Z,5.43
2023-05-16T13:45:09.144Z,5.55
2023-05-16T13:47:37.873Z,5.13
2023-05-16T13:50:10.264Z,5.50
2023-05-16T13:52:39.243Z,6.10
2023-05-16T13:55:09.644Z,6.00
2023-05-16T13:57:37.853Z,5.40
2023-05-16T14:00:43.658Z,5.45
2023-05-16T14:03:01.639Z,6.50
2023-05-16T14:05:30.094Z,5.68
2023-05-16T14:07:58.214Z,6.00
2023-05-16T14:10:27.809Z,5.15
2023-05-16T14:12:56.048Z,5.90
2023-05-16T14:15:24.085Z,6.28
2023-05-16T14:17:52.183Z,7.32
2023-05-16T14:20:20.461Z,7.35
2023-05-16T14:22:48.452Z,7.97
2023-05-16T14:25:16.804Z,7.90
2023-05-16T14:27:46.179Z,8.15
2023-05-16T14:30:14.934Z,7.88
2023-05-16T14:32:43.160Z,8.30
2023-05-16T14:35:11.501Z,8.20
2023-05-16T14:37:39.587Z,8.15
2023-05-16T14:40:09.243Z,8.40
2023-05-16T14:42:37.326Z,7.35
2023-05-16T14:45:07.755Z,7.30
2023-05-16T14:47:36.464Z,7.78
2023-05-16T14:50:04.791Z,7.93
2023-05-16T14:52:32.903Z,9.68
2023-05-16T14:55:01.576Z,8.02
2023-05-16T14:57:29.622Z,8.40
2023-05-16T14:59:58.649Z,9.30
2023-05-16T15:02:28.153Z,8.95
2023-05-16T15:04:56.209Z,8.35
2023-05-16T15:07:24.691Z,9.10
2023-05-16T15:09:52.862Z,8.25
2023-05-16T15:12:20.877Z,8.80
2023-05-16T15:14:48.903Z,9.05
2023-05-16T15:17:16.950Z,9.60
2023-05-16T15:19:47.966Z,8.80
2023-05-16T15:22:16.782Z,9.63
2023-05-16T15:24:44.908Z,9.40
2023-05-16T15:27:14.466Z,8.95
2023-05-16T15:29:44.830Z,9.73
2023-05-16T15:32:13.845Z,10.95
2023-05-16T15:34:42.196Z,14.20
2023-05-16T15:37:11.770Z,9.60
2023-05-16T15:39:40.113Z,10.63
2023-05-16T15:42:11.181Z,9.98
2023-05-16T15:44:40.076Z,10.27
2023-05-16T15:47:08.696Z,10.07
2023-05-16T15:49:36.790Z,10.18
2023-05-16T15:52:05.419Z,10.38
2023-05-16T15:54:35.101Z,10.77
2023-05-16T15:57:03.298Z,10.25
2023-05-16T15:59:31.401Z,9.77
2023-05-16T16:01:59.448Z,9.80
2023-05-16T16:04:41.152Z,10.25
2023-05-16T16:07:11.156Z,9.38
2023-05-16T16:09:42.776Z,8.43
2023-05-16T16:12:15.999Z,8.80
2023-05-16T16:14:45.618Z,9.05
2023-05-16T16:17:16.655Z,9.13
2023-05-16T16:19:50.418Z,10.65
2023-05-16T16:22:22.527Z,12.40
2023-05-16T16:24:56.270Z,10.77
2023-05-16T16:27:30.717Z,9.07
2023-05-16T16:29:59.802Z,9.82
2023-05-16T16:32:29.891Z,9.50
2023-05-16T16:35:00.260Z,9.70
2023-05-16T16:37:30.533Z,8.07
2023-05-16T16:40:02.156Z,9.20
2023-05-16T16:42:38.863Z,9.35
2023-05-16T16:45:10.899Z,9.68
2023-05-16T16:47:42.016Z,10.55
2023-05-16T16:50:15.949Z,10.00
2023-05-16T16:52:44.131Z,10.40
2023-05-16T16:55:14.910Z,9.90
2023-05-16T16:57:43.690Z,10.63
2023-05-16T17:00:14.249Z,10.18
2023-05-16T17:02:42.404Z,9.63
2023-05-16T17:05:12.379Z,9.57
2023-05-16T17:07:40.602Z,9.25
2023-05-16T17:10:09.690Z,10.10
2023-05-16T17:12:47.215Z,10.13
2023-05-16T17:15:15.232Z,10.73
2023-05-16T17:17:43.265Z,10.45
2023-05-16T17:20:13.074Z,10.25
2023-05-16T17:22:42.457Z,10.30
2023-05-16T17:25:11.580Z,10.73
2023-05-16T17:27:41.887Z,11.15
2023-05-16T17:30:11.223Z,11.25
2023-05-16T17:32:40.016Z,10.57
2023-05-16T17:35:08.427Z,10.55
2023-05-16T17:37:36.438Z,10.60
2023-05-16T17:40:05.942Z,11.07
2023-05-16T17:42:34.139Z,10.20
2023-05-16T17:45:04.830Z,10.63
2023-05-16T17:47:33.181Z,10.35
2023-05-16T17:50:01.512Z,10.65
2023-05-16T17:52:29.713Z,10.93
2023-05-16T17:54:57.909Z,10.02
2023-05-16T17:57:26.643Z,10.95
2023-05-16T17:59:54.777Z,10.27
2023-05-16T18:02:24.257Z,10.27
2023-05-16T18:04:53.047Z,10.32
2023-05-16T18:07:21.168Z,10.80
2023-05-16T18:09:49.872Z,10.30
2023-05-16T18:12:18.082Z,9.75
2023-05-16T18:14:46.295Z,9.90
2023-05-16T18:17:14.576Z,8.98
2023-05-16T18:19:44.282Z,9.35
2023-05-16T18:22:13.339Z,9.90
2023-05-16T18:24:41.363Z,10.30
2023-05-16T18:27:09.731Z,10.02
2023-05-16T18:29:38.221Z,10.57
2023-05-16T18:32:06.994Z,10.52
2023-05-16T18:34:35.835Z,10.80
2023-05-16T18:37:06.057Z,12.10
2023-05-16T18:39:37.921Z,10.68
2023-05-16T18:42:05.979Z,10.43
2023-05-16T18:44:34.340Z,10.70
2023-05-16T18:47:03.914Z,11.65
2023-05-16T18:49:34.534Z,11.82
2023-05-16T18:52:04.627Z,12.05
2023-05-16T18:54:32.716Z,12.30
2023-05-16T18:57:02.254Z,12.43
2023-05-16T18:59:31.740Z,11.55
2023-05-16T19:02:00.200Z,12.18
2023-05-16T19:04:28.446Z,12.18
2023-05-16T19:07:03.821Z,12.00
2023-05-16T19:09:34.081Z,11.40
2023-05-16T19:12:02.235Z,11.27
2023-05-16T19:14:30.637Z,11.25
2023-05-16T19:16:58.586Z,10.30
2023-05-16T19:19:27.202Z,10.70
2023-05-16T19:21:55.734Z,10.77
2023-05-16T19:24:23.800Z,10.68
2023-05-16T19:26:53.434Z,10.82
2023-05-16T19:29:22.540Z,9.55
2023-05-16T19:31:53.643Z,10.35
2023-05-16T19:34:21.751Z,9.07
2023-05-16T19:36:50.806Z,7.90
2023-05-16T19:39:18.847Z,8.65
2023-05-16T19:41:51.684Z,8.85
2023-05-16T19:44:21.932Z,8.98
2023-05-16T19:46:50.458Z,7.80
2023-05-16T19:49:20.226Z,7.97
2023-05-16T19:51:48.506Z,7.53
2023-05-16T19:54:16.524Z,7.47
2023-05-16T19:56:44.700Z,9.52
2023-05-16T19:59:12.858Z,7.95
2023-05-16T20:01:42.365Z,8.48
2023-05-16T20:04:10.565Z,16.75
2023-05-16T20:06:38.730Z,7.05
2023-05-16T20:09:07.829Z,7.93
2023-05-16T20:11:37.191Z,7.75
2023-05-16T20:14:05.539Z,7.28
2023-05-16T20:16:33.734Z,6.90
2023-05-16T20:19:03.820Z,6.32
2023-05-16T20:21:32.018Z,6.57
2023-05-16T20:24:00.039Z,6.38
2023-05-16T20:26:28.110Z,6.55
2023-05-16T20:28:56.167Z,7.05
2023-05-16T20:31:25.148Z,10.23
2023-05-16T20:34:00.124Z,5.65
2023-05-16T20:36:29.868Z,6.22
2023-05-16T20:38:58.012Z,7.35
2023-05-16T20:41:26.176Z,6.32
2023-05-16T20:43:54.556Z,5.75
2023-05-16T20:46:22.551Z,10.40
2023-05-16T20:48:50.686Z,13.90
2023-05-16T20:51:18.946Z,5.45
2023-05-16T20:53:48.376Z,7.25
2023-05-16T20:56:16.380Z,6.55
2023-05-16T20:58:47.859Z,7.30
2023-05-16T21:01:15.837Z,7.13
2023-05-16T21:03:43.881Z,26.95
2023-05-16T21:06:12.081Z,7.57
2023-05-16T21:08:40.136Z,8.57
2023-05-16T21:11:09.509Z,10.20
2023-05-16T21:13:37.572Z,8.90
2023-05-16T21:16:05.986Z,7.90
2023-05-16T21:18:34.422Z,14.18
2023-05-16T21:21:02.598Z,9.05
2023-05-16T21:23:30.530Z,13.43
2023-05-16T21:25:58.524Z,11.35
2023-05-16T21:28:28.271Z,9.82
2023-05-16T21:30:56.462Z,11.77
2023-05-16T21:33:24.667Z,7.38
2023-05-16T21:35:53.289Z,7.32
2023-05-16T21:38:21.266Z,8.45
2023-05-16T21:40:49.483Z,8.85
2023-05-16T21:43:17.648Z,9.00
2023-05-16T21:45:47.487Z,8.60
2023-05-16T21:48:15.715Z,7.95
2023-05-16T21:50:44.454Z,8.48
2023-05-16T21:53:12.497Z,8.05
2023-05-16T21:55:42.598Z,7.50
2023-05-16T21:58:10.702Z,11.38
2023-05-16T22:00:38.710Z,8.68
2023-05-16T22:03:08.395Z,7.70
2023-05-16T22:05:36.950Z,7.47
2023-05-16T22:08:05.456Z,8.50
2023-05-16T22:10:33.464Z,9.43
2023-05-16T22:13:01.442Z,8.48
2023-05-16T22:15:29.899Z,7.65
2023-05-16T22:17:58.515Z,8.82
2023-05-16T22:20:28.100Z,8.20
2023-05-16T22:22:56.124Z,8.38
2023-05-16T22:25:24.182Z,8.10
2023-05-16T22:27:52.421Z,8.10
2023-05-16T22:30:20.566Z,7.10
2023-05-16T22:32:48.782Z,5.78
2023-05-16T22:35:17.067Z,5.78
2023-05-16T22:37:46.411Z,5.85
2023-05-16T22:40:14.533Z,6.38
2023-05-16T22:42:42.544Z,6.63
2023-05-16T22:45:11.198Z,6.80
2023-05-16T22:47:39.191Z,6.18
2023-05-16T22:50:08.035Z,5.32
2023-05-16T22:52:41.149Z,4.68
2023-05-16T22:55:11.370Z,4.82
2023-05-16T22:57:39.360Z,5.45
2023-05-16T23:00:09.128Z,5.72
2023-05-16T23:02:37.137Z,5.65
2023-05-16T23:05:05.747Z,5.60
2023-05-16T23:07:33.808Z,5.88
2023-05-16T23:10:01.875Z,5.95
2023-05-16T23:12:31.213Z,5.57
2023-05-16T23:14:59.310Z,6.13
2023-05-16T23:17:27.431Z,6.03
2023-05-16T23:19:55.612Z,5.30
2023-05-16T23:22:23.909Z,4.95
2023-05-16T23:24:52.428Z,5.55
2023-05-16T23:27:20.615Z,5.57
2023-05-16T23:29:49.909Z,10.95
2023-05-16T23:32:18.052Z,7.05
2023-05-16T23:34:46.117Z,7.13
2023-05-16T23:37:14.068Z,9.82
2023-05-16T23:39:42.027Z,9.75
2023-05-16T23:42:09.979Z,8.00
2023-05-16T23:44:39.668Z,6.22
2023-05-16T23:47:09.068Z,7.90
2023-05-16T23:49:36.957Z,8.88
2023-05-16T23:52:06.103Z,7.57
2023-05-16T23:54:34.408Z,7.03
2023-05-16T23:57:02.433Z,7.93
2023-05-16T23:59:30.390Z,6.80
